Time;durP1;ratioP1;P1;durP2;ratioP2;P2;SDS_P1;SDS_P2;PMS_P1;PMS_P2;Temp;Humidity;BMP_temperature;BMP_pressure;BME280_temperature;BME280_humidity;BME280_pressure;Samples;Min_cycle;Max_cycle;Signal;HPM_P1;HPM_P2
2023/05/24 00:00:05;;;;;;;9.48;2.75;;;;;;;14.25;65.47;102153.38;4968803;28;20043;-52
2023/05/24 00:02:31;;;;;;;8.52;2.92;;;;;;;14.21;65.46;102167.19;4966486;28;20061;-52
2023/05/24 00:04:59;;;;;;;5.03;2.53;;;;;;;14.16;65.44;102163.78;4949702;28;20043;-52
2023/05/24 00:07:26;;;;;;;7.13;3.47;;;;;;;14.07;65.84;102163.81;4965659;28;20043;-44
2023/05/24 00:09:53;;;;;;;7.72;3.28;;;;;;;14.03;65.94;102160.88;4969548;28;20156;-46
2023/05/24 00:12:20;;;;;;;11.65;3.30;;;;;;;14.04;66.08;102156.94;4969193;28;20046;-47
2023/05/24 00:14:47;;;;;;;6.43;2.65;;;;;;;14.02;65.99;102153.69;4969948;28;20070;-45
2023/05/24 00:17:13;;;;;;;9.57;3.35;;;;;;;13.97;66.11;102162.22;4970216;28;20078;-44
2023/05/24 00:19:41;;;;;;;6.53;2.47;;;;;;;13.93;66.06;102155.66;4969536;28;20167;-46
2023/05/24 00:22:08;;;;;;;5.50;2.45;;;;;;;13.91;66.21;102151.59;4965648;28;20054;-44
2023/05/24 00:24:35;;;;;;;10.75;2.42;;;;;;;13.86;66.31;102160.94;4955016;28;20397;-46
2023/05/24 00:27:02;;;;;;;9.57;3.50;;;;;;;13.86;66.63;102160.94;4962618;28;20093;-48
2023/05/24 00:29:28;;;;;;;9.95;2.92;;;;;;;13.88;66.52;102150.28;4969150;28;20073;-44
2023/05/24 00:31:57;;;;;;;5.30;3.17;;;;;;;13.82;66.47;102143.25;4969559;28;20101;-45
2023/05/24 00:34:24;;;;;;;4.68;2.97;;;;;;;13.79;66.66;102149.50;4968731;28;20057;-44
2023/05/24 00:36:51;;;;;;;12.63;3.45;;;;;;;13.76;66.89;102150.19;4969528;28;20062;-50
2023/05/24 00:39:18;;;;;;;9.30;2.60;;;;;;;13.74;66.73;102144.09;4967304;28;20078;-44
2023/05/24 00:41:45;;;;;;;8.32;2.30;;;;;;;13.67;66.85;102146.59;4969438;28;20081;-45
2023/05/24 00:44:11;;;;;;;6.78;2.85;;;;;;;13.61;67.07;102142.34;4970705;28;20047;-45
2023/05/24 00:46:38;;;;;;;6.65;2.85;;;;;;;13.59;67.27;102139.09;4973916;28;20046;-44
2023/05/24 00:49:06;;;;;;;12.60;3.05;;;;;;;13.55;67.37;102142.88;4972375;28;20378;-44
2023/05/24 00:51:33;;;;;;;6.00;3.30;;;;;;;13.50;67.35;102146.66;4980123;28;20561;-45
2023/05/24 00:54:00;;;;;;;11.45;3.05;;;;;;;13.48;67.48;102137.81;4972607;28;20042;-46
2023/05/24 00:56:28;;;;;;;6.93;2.78;;;;;;;13.46;67.59;102139.28;4960821;28;20043;-45
2023/05/24 00:58:55;;;;;;;9.07;3.00;;;;;;;13.48;67.65;102143.38;4973196;28;20060;-45
2023/05/24 01:01:25;;;;;;;8.82;2.80;;;;;;;13.47;67.70;102141.75;4955916;28;20050;-44
2023/05/24 01:03:53;;;;;;;10.00;2.38;;;;;;;13.43;68.03;102135.19;4972123;28;20039;-48
2023/05/24 01:06:20;;;;;;;11.93;3.20;;;;;;;13.46;67.93;102134.53;4973035;28;20129;-44
2023/05/24 01:08:56;;;;;;;10.95;2.92;;;;;;;13.46;67.92;102133.72;4972936;28;20047;-45
2023/05/24 01:11:33;;;;;;;8.90;2.88;;;;;;;13.45;67.73;102123.75;4972996;28;20485;-46
2023/05/24 01:14:26;;;;;;;6.38;2.70;;;;;;;13.44;67.86;102125.72;4973238;28;20126;-44
2023/05/24 01:17:04;;;;;;;7.20;3.15;;;;;;;13.35;67.93;102128.50;4972947;28;20039;-47
2023/05/24 01:19:44;;;;;;;11.95;3.63;;;;;;;13.34;68.31;102120.50;4970952;28;20114;-48
2023/05/24 01:22:27;;;;;;;9.88;3.25;;;;;;;13.31;68.17;102126.72;4972232;28;20050;-44
2023/05/24 01:25:17;;;;;;;8.35;3.45;;;;;;;13.27;68.27;102128.53;4968455;28;20050;-45
2023/05/24 01:27:45;;;;;;;9.27;3.78;;;;;;;13.22;68.17;102120.34;4972526;28;20050;-44
2023/05/24 01:30:13;;;;;;;9.90;3.38;;;;;;;13.18;68.80;102119.38;4972977;28;20049;-46
2023/05/24 01:32:39;;;;;;;7.38;3.05;;;;;;;13.16;68.69;102114.13;4972288;28;20054;-44
2023/05/24 01:35:07;;;;;;;6.03;3.38;;;;;;;13.15;68.47;102123.66;4972413;28;20047;-44
2023/05/24 01:37:33;;;;;;;7.82;3.65;;;;;;;13.13;68.40;102125.13;4972626;28;20126;-51
2023/05/24 01:40:01;;;;;;;10.85;3.53;;;;;;;13.11;68.77;102121.84;4971215;28;20046;-45
2023/05/24 01:42:51;;;;;;;11.55;3.40;;;;;;;13.06;68.69;102120.00;4965771;28;20145;-44
2023/05/24 01:45:28;;;;;;;10.30;3.42;;;;;;;13.08;68.47;102116.94;4960437;28;20053;-46
2023/05/24 01:48:30;;;;;;;9.20;2.97;;;;;;;13.04;68.61;102121.50;4968860;28;20055;-46
2023/05/24 01:51:00;;;;;;;4.97;2.90;;;;;;;12.99;68.64;102130.00;4967305;28;20126;-47
2023/05/24 01:53:33;;;;;;;8.48;3.05;;;;;;;12.96;68.92;102120.34;4971302;28;20043;-45
2023/05/24 01:56:05;;;;;;;9.13;3.08;;;;;;;12.93;68.93;102120.19;4970452;28;20043;-49
2023/05/24 01:58:33;;;;;;;5.72;2.60;;;;;;;12.93;68.88;102115.44;4972116;28;20072;-48
2023/05/24 02:01:01;;;;;;;6.32;3.08;;;;;;;12.94;68.93;102119.06;4972010;28;20047;-49
2023/05/24 02:03:28;;;;;;;6.70;2.53;;;;;;;12.93;68.95;102117.41;4971175;28;20051;-46
2023/05/24 02:05:55;;;;;;;11.38;3.47;;;;;;;12.90;69.07;102116.09;4955495;28;20078;-49
2023/05/24 02:08:22;;;;;;;7.10;3.35;;;;;;;12.93;68.73;102131.31;4972431;28;20105;-45
2023/05/24 02:10:48;;;;;;;7.57;2.78;;;;;;;12.92;69.22;102122.13;4971839;28;20424;-52
2023/05/24 02:13:16;;;;;;;7.90;3.10;;;;;;;12.89;69.08;102119.22;4972337;28;20047;-45
2023/05/24 02:15:43;;;;;;;11.85;3.10;;;;;;;12.89;69.18;102117.25;4971962;28;20070;-44
2023/05/24 02:18:11;;;;;;;9.10;3.28;;;;;;;12.90;69.07;102132.78;4967247;28;20046;-46
2023/05/24 02:20:39;;;;;;;7.35;2.45;;;;;;;12.89;69.05;102127.56;4972012;28;20074;-44
2023/05/24 02:23:06;;;;;;;6.13;3.80;;;;;;;12.90;69.03;102138.34;4970740;28;20039;-44
2023/05/24 02:25:33;;;;;;;8.27;3.30;;;;;;;12.88;68.96;102129.50;4971461;28;20047;-44
2023/05/24 02:28:00;;;;;;;12.80;3.33;;;;;;;12.83;69.23;102133.28;4971802;28;20105;-47
2023/05/24 02:30:27;;;;;;;8.25;3.38;;;;;;;12.79;69.38;102135.06;4971589;28;20058;-45
2023/05/24 02:32:54;;;;;;;13.60;3.63;;;;;;;12.79;69.49;102126.72;4968164;28;20109;-44
2023/05/24 02:35:24;;;;;;;9.07;3.28;;;;;;;12.81;69.53;102113.31;4971738;28;20054;-44
2023/05/24 02:37:51;;;;;;;7.60;2.95;;;;;;;12.82;69.34;102119.69;4970488;28;20046;-44
2023/05/24 02:40:18;;;;;;;5.88;3.00;;;;;;;12.79;69.16;102128.69;4971508;28;20043;-44
2023/05/24 02:42:45;;;;;;;10.15;3.67;;;;;;;12.79;69.37;102126.72;4970226;28;20058;-45
2023/05/24 02:45:11;;;;;;;4.10;2.42;;;;;;;12.82;69.18;102136.38;4971488;28;20059;-44
2023/05/24 02:47:38;;;;;;;5.75;3.10;;;;;;;12.83;69.19;102135.25;4971391;28;20045;-47
2023/05/24 02:50:06;;;;;;;7.72;3.42;;;;;;;12.86;68.89;102139.31;4971104;28;20055;-44
2023/05/24 02:52:32;;;;;;;7.78;3.40;;;;;;;12.80;69.29;102133.94;4967996;28;20042;-45
2023/05/24 02:54:59;;;;;;;9.35;3.60;;;;;;;12.77;69.25;102130.97;4970614;28;20050;-43
2023/05/24 02:57:27;;;;;;;9.05;3.88;;;;;;;12.71;69.20;102130.31;4970913;28;20121;-46
2023/05/24 02:59:54;;;;;;;12.27;3.90;;;;;;;12.61;69.47;102127.03;4971221;28;20105;-44
2023/05/24 03:02:21;;;;;;;5.75;2.72;;;;;;;12.58;69.52;102122.94;5000652;23;20062;-43
2023/05/24 03:04:48;;;;;;;7.03;3.50;;;;;;;12.57;69.60;102132.44;4970008;28;20039;-44
2023/05/24 03:07:16;;;;;;;11.88;3.40;;;;;;;12.47;69.66;102131.94;4969830;28;20051;-44
2023/05/24 03:09:42;;;;;;;6.53;3.70;;;;;;;12.36;69.74;102123.09;4968488;28;20547;-45
2023/05/24 03:12:09;;;;;;;9.63;3.78;;;;;;;12.29;70.06;102135.78;4969114;28;20042;-43
2023/05/24 03:14:36;;;;;;;10.88;3.67;;;;;;;12.22;70.40;102136.28;4968741;28;20093;-44
2023/05/24 03:17:03;;;;;;;7.75;3.63;;;;;;;12.19;70.47;102139.69;4969211;28;20097;-43
2023/05/24 03:19:30;;;;;;;9.68;3.75;;;;;;;12.19;70.58;102139.69;4968652;28;20051;-47
2023/05/24 03:21:57;;;;;;;7.35;4.20;;;;;;;12.15;70.72;102144.28;4970191;28;20412;-44
2023/05/24 03:24:24;;;;;;;14.27;5.43;;;;;;;12.10;71.00;102134.13;4970416;28;20047;-44
2023/05/24 03:26:51;;;;;;;7.75;3.95;;;;;;;12.08;71.17;102127.25;4967506;28;20043;-44
2023/05/24 03:29:18;;;;;;;9.18;3.15;;;;;;;12.04;71.38;102132.66;4970331;28;20055;-44
2023/05/24 03:31:45;;;;;;;5.78;3.28;;;;;;;11.99;71.66;102134.75;4968590;28;20451;-44
2023/05/24 03:34:12;;;;;;;5.95;3.35;;;;;;;12.00;71.54;102137.19;4970501;28;20142;-43
2023/05/24 03:36:38;;;;;;;6.15;3.40;;;;;;;11.98;71.79;102133.09;4968480;28;20039;-43
2023/05/24 03:39:06;;;;;;;11.18;3.72;;;;;;;11.93;72.00;102125.75;4970337;28;20054;-45
2023/05/24 03:41:33;;;;;;;11.98;4.22;;;;;;;11.94;72.13;102127.38;4968590;28;20496;-45
2023/05/24 03:44:00;;;;;;;8.82;4.00;;;;;;;11.90;72.20;102126.38;4970033;28;20069;-44
2023/05/24 03:46:27;;;;;;;9.25;4.28;;;;;;;11.94;72.36;102132.13;4967150;28;20058;-44
2023/05/24 03:48:54;;;;;;;7.35;4.20;;;;;;;11.92;72.45;102139.94;4968988;28;20085;-43
2023/05/24 03:51:23;;;;;;;8.30;4.20;;;;;;;11.93;72.60;102144.34;4968946;28;20042;-47
2023/05/24 03:53:49;;;;;;;8.48;3.97;;;;;;;11.95;72.45;102147.63;4952508;28;20051;-43
2023/05/24 03:56:16;;;;;;;11.02;4.43;;;;;;;11.94;72.48;102154.31;4968537;28;20114;-45
2023/05/24 03:58:43;;;;;;;11.73;3.65;;;;;;;11.89;72.40;102140.56;4969460;28;20066;-43
2023/05/24 04:01:10;;;;;;;7.30;3.55;;;;;;;11.84;72.97;102140.72;4948923;28;20109;-43
2023/05/24 04:03:54;;;;;;;9.52;3.88;;;;;;;11.86;72.99;102146.78;4964554;28;20138;-44
2023/05/24 04:06:27;;;;;;;9.60;5.72;;;;;;;11.86;72.93;102152.31;4968653;28;20035;-43
2023/05/24 04:08:55;;;;;;;8.32;4.00;;;;;;;11.84;73.03;102147.09;4969030;28;20046;-50
2023/05/24 04:11:23;;;;;;;10.50;4.45;;;;;;;11.88;73.02;102161.16;4966681;28;20049;-47
2023/05/24 04:13:50;;;;;;;6.05;3.15;;;;;;;11.87;72.92;102153.94;4967895;28;20034;-47
2023/05/24 04:16:17;;;;;;;9.15;4.03;;;;;;;11.89;72.94;102148.88;4967331;28;20061;-43
2023/05/24 04:18:44;;;;;;;9.25;3.63;;;;;;;11.85;72.94;102147.91;4967439;28;20039;-44
2023/05/24 04:21:11;;;;;;;9.68;3.90;;;;;;;11.76;73.38;102152.59;4969194;28;20049;-44
2023/05/24 04:23:37;;;;;;;11.27;4.50;;;;;;;11.72;73.56;102152.41;4972858;28;20188;-45
2023/05/24 04:26:04;;;;;;;8.00;3.45;;;;;;;11.76;73.56;102149.81;4973283;28;20121;-50
2023/05/24 04:28:32;;;;;;;6.18;3.40;;;;;;;11.77;73.44;102151.47;4970896;28;20053;-44
2023/05/24 04:30:59;;;;;;;11.48;3.63;;;;;;;11.74;73.52;102160.41;4969209;28;20551;-48
2023/05/24 04:33:26;;;;;;;7.28;3.28;;;;;;;11.75;73.47;102165.66;4969980;28;20053;-44
2023/05/24 04:35:53;;;;;;;10.68;3.80;;;;;;;11.68;73.51;102173.56;4969085;28;20054;-44
2023/05/24 04:38:20;;;;;;;9.60;3.42;;;;;;;11.65;73.84;102174.19;4970050;28;20039;-43
2023/05/24 04:40:47;;;;;;;9.70;3.80;;;;;;;11.67;73.69;102168.34;4969733;28;20428;-44
2023/05/24 04:43:14;;;;;;;10.35;3.90;;;;;;;11.66;73.76;102175.03;4969404;28;20054;-47
2023/05/24 04:45:41;;;;;;;8.50;3.70;;;;;;;11.70;73.90;102170.53;4968800;28;20130;-44
2023/05/24 04:48:08;;;;;;;10.07;3.60;;;;;;;11.67;74.10;102177.50;4969053;28;20043;-44
2023/05/24 04:50:36;;;;;;;9.25;3.95;;;;;;;11.64;74.24;102169.81;4968023;28;20091;-44
2023/05/24 04:53:03;;;;;;;13.63;4.72;;;;;;;11.69;74.27;102178.03;4966363;28;20058;-46
2023/05/24 04:55:31;;;;;;;5.88;3.65;;;;;;;11.72;74.05;102171.00;4968795;28;20050;-44
2023/05/24 04:57:58;;;;;;;12.35;3.63;;;;;;;11.69;73.99;102177.19;4950487;28;20523;-43
2023/05/24 05:00:25;;;;;;;8.73;3.88;;;;;;;11.66;74.14;102178.63;4966608;28;20827;-44
2023/05/24 05:02:52;;;;;;;7.38;3.25;;;;;;;11.62;74.34;102177.63;4950490;28;20055;-43
2023/05/24 05:05:20;;;;;;;7.50;3.83;;;;;;;11.61;74.36;102182.34;4949615;28;20066;-49
2023/05/24 05:07:46;;;;;;;9.98;3.47;;;;;;;11.58;74.43;102194.09;4936725;29;20043;-43
2023/05/24 05:10:13;;;;;;;11.82;3.63;;;;;;;11.55;74.50;102189.16;4946372;29;20245;-50
2023/05/24 05:12:40;;;;;;;8.02;3.53;;;;;;;11.58;74.78;102184.94;4949018;29;20047;-44
2023/05/24 05:15:08;;;;;;;7.57;3.95;;;;;;;11.55;74.85;102186.38;4947695;29;20048;-43
2023/05/24 05:17:35;;;;;;;8.07;4.32;;;;;;;11.50;74.90;102186.53;4949249;29;20075;-43
2023/05/24 05:20:03;;;;;;;12.50;4.35;;;;;;;11.51;75.15;102179.03;4945981;29;20055;-45
2023/05/24 05:22:29;;;;;;;10.80;4.68;;;;;;;11.48;75.15;102180.47;4945098;29;20449;-45
2023/05/24 05:24:56;;;;;;;9.30;4.60;;;;;;;11.48;75.54;102182.44;4945098;29;20047;-44
2023/05/24 05:27:23;;;;;;;16.45;5.50;;;;;;;11.55;75.61;102188.34;4949470;28;20075;-43
2023/05/24 05:29:50;;;;;;;9.43;4.18;;;;;;;11.57;75.66;102184.09;4948720;28;20053;-43
2023/05/24 05:32:17;;;;;;;12.55;4.50;;;;;;;11.58;75.53;102194.09;4951748;29;20078;-48
2023/05/24 05:34:45;;;;;;;12.73;4.78;;;;;;;11.60;75.88;102189.03;4953576;29;20067;-44
2023/05/24 05:37:12;;;;;;;8.40;4.22;;;;;;;11.63;75.93;102196.72;4954205;28;20063;-45
2023/05/24 05:39:38;;;;;;;10.48;4.30;;;;;;;11.63;76.01;102193.13;4957116;28;20134;-43
2023/05/24 05:42:06;;;;;;;8.85;4.50;;;;;;;11.63;76.30;102180.06;4952331;28;20058;-43
2023/05/24 05:44:32;;;;;;;15.18;4.38;;;;;;;11.67;76.39;102188.59;4953615;29;20047;-44
2023/05/24 05:46:59;;;;;;;11.93;4.55;;;;;;;11.71;76.29;102200.72;4936017;29;20040;-47
2023/05/24 05:49:26;;;;;;;11.98;4.57;;;;;;;11.73;76.17;102197.63;4953567;29;20489;-47
2023/05/24 05:51:53;;;;;;;13.93;4.30;;;;;;;11.75;76.50;102200.91;4953298;29;20047;-45
2023/05/24 05:54:20;;;;;;;15.77;4.18;;;;;;;11.76;76.41;102202.53;4959542;28;20086;-43
2023/05/24 05:56:47;;;;;;;8.95;3.80;;;;;;;11.77;76.56;102199.44;4952541;29;20498;-43
2023/05/24 05:59:14;;;;;;;14.88;4.13;;;;;;;11.83;76.70;102198.19;4950699;29;20043;-44
2023/05/24 06:01:42;;;;;;;17.50;4.60;;;;;;;11.87;76.61;102203.91;4959442;28;20050;-43
2023/05/24 06:04:09;;;;;;;9.93;4.47;;;;;;;11.94;76.49;102204.28;4969966;28;20039;-44
2023/05/24 06:06:36;;;;;;;9.35;3.92;;;;;;;11.95;76.47;102215.06;4971249;28;20039;-47
2023/05/24 06:09:03;;;;;;;7.25;3.67;;;;;;;11.97;76.63;102211.94;4970939;28;20047;-44
2023/05/24 06:11:30;;;;;;;10.98;3.90;;;;;;;12.04;76.52;102204.81;4965893;28;20373;-43
2023/05/24 06:13:57;;;;;;;12.57;4.78;;;;;;;12.14;76.77;102209.25;4968466;28;20090;-43
2023/05/24 06:16:24;;;;;;;8.00;3.85;;;;;;;12.20;76.67;102213.53;4969304;28;20143;-43
2023/05/24 06:18:51;;;;;;;8.13;3.85;;;;;;;12.24;76.71;102214.53;4970358;28;20066;-48
2023/05/24 06:21:31;;;;;;;8.52;4.05;;;;;;;12.30;76.56;102207.69;4970269;28;20066;-43
2023/05/24 06:24:01;;;;;;;8.77;3.65;;;;;;;12.39;76.59;102211.31;4973905;28;20053;-43
2023/05/24 06:26:28;;;;;;;8.80;3.50;;;;;;;12.42;76.38;102213.44;4971275;28;20057;-43
2023/05/24 06:28:55;;;;;;;8.10;3.83;;;;;;;12.51;76.56;102211.53;4971455;28;20152;-48
2023/05/24 06:31:22;;;;;;;9.65;4.28;;;;;;;12.60;76.39;102212.34;4953905;28;20453;-43
2023/05/24 06:33:50;;;;;;;12.70;4.53;;;;;;;12.67;76.23;102206.31;4968911;28;20078;-44
2023/05/24 06:36:28;;;;;;;12.48;3.83;;;;;;;12.67;76.31;102212.72;4971251;28;20042;-44
2023/05/24 06:38:55;;;;;;;7.10;2.90;;;;;;;12.66;76.08;102199.94;4971632;28;20070;-46
2023/05/24 06:41:22;;;;;;;8.30;3.65;;;;;;;12.64;76.10;102207.78;4972912;28;20078;-47
2023/05/24 06:43:49;;;;;;;12.88;4.43;;;;;;;12.68;76.30;102214.31;4970590;28;20456;-44
2023/05/24 06:46:16;;;;;;;10.82;3.92;;;;;;;12.72;76.00;102212.56;4971236;28;20523;-44
2023/05/24 06:48:43;;;;;;;15.13;4.13;;;;;;;12.82;75.90;102217.78;4971597;28;20051;-44
2023/05/24 06:51:10;;;;;;;9.10;3.78;;;;;;;12.90;75.78;102216.16;4970832;28;20049;-44
2023/05/24 06:53:38;;;;;;;9.05;3.55;;;;;;;12.99;75.70;102221.75;4954157;28;20492;-46
2023/05/24 06:56:08;;;;;;;12.30;3.55;;;;;;;13.05;75.76;102220.44;4971007;28;20109;-44
2023/05/24 06:58:35;;;;;;;10.85;3.83;;;;;;;13.09;75.53;102216.72;4971371;28;20043;-44
2023/05/24 07:01:03;;;;;;;13.70;4.20;;;;;;;13.19;75.29;102223.91;4950453;29;20413;-44
2023/05/24 07:03:31;;;;;;;16.02;4.07;;;;;;;13.25;75.39;102217.03;4951674;29;20170;-44
2023/05/24 07:05:58;;;;;;;15.20;4.10;;;;;;;13.30;75.32;102220.47;4951649;29;20560;-49
2023/05/24 07:08:25;;;;;;;11.20;3.70;;;;;;;13.33;75.26;102224.56;4951218;29;20051;-48
2023/05/24 07:10:55;;;;;;;8.95;2.72;;;;;;;13.34;74.98;102224.22;4950199;29;20078;-44
2023/05/24 07:13:22;;;;;;;12.25;3.60;;;;;;;13.40;75.33;102230.44;4942888;29;20508;-45
2023/05/24 07:15:49;;;;;;;7.93;3.03;;;;;;;13.45;75.45;102235.84;4947625;29;20508;-44
2023/05/24 07:18:16;;;;;;;13.45;3.53;;;;;;;13.49;75.29;102233.22;4949215;29;20065;-44
2023/05/24 07:20:43;;;;;;;15.23;3.55;;;;;;;13.57;75.57;102238.78;4948353;29;20059;-44
2023/05/24 07:23:10;;;;;;;9.98;3.42;;;;;;;13.70;75.73;102240.56;4950473;29;20047;-49
2023/05/24 07:25:37;;;;;;;8.65;3.25;;;;;;;13.86;76.23;102238.91;4948132;28;20501;-44
2023/05/24 07:28:04;;;;;;;14.23;3.55;;;;;;;14.03;76.48;102238.03;4948266;29;20079;-47
2023/05/24 07:30:31;;;;;;;12.77;5.75;;;;;;;14.15;76.54;102237.34;4959154;28;20560;-44
2023/05/24 07:32:58;;;;;;;15.85;4.10;;;;;;;14.32;77.27;102240.09;4950648;29;20087;-44
2023/05/24 07:35:27;;;;;;;12.38;3.67;;;;;;;14.46;77.15;102246.25;4933069;29;20055;-47
2023/05/24 07:37:54;;;;;;;5.70;2.63;;;;;;;14.62;77.56;102233.38;4941893;29;20184;-45
2023/05/24 07:40:21;;;;;;;15.50;3.47;;;;;;;14.83;78.10;102248.16;4945364;29;20051;-44
2023/05/24 07:42:49;;;;;;;12.35;4.25;;;;;;;15.11;78.58;102240.94;4948470;29;20493;-44
2023/05/24 07:45:15;;;;;;;12.23;2.60;;;;;;;15.43;78.69;102246.91;4949420;29;20051;-45
2023/05/24 07:47:42;;;;;;;10.75;2.90;;;;;;;15.59;77.26;102261.91;4949353;29;20058;-44
2023/05/24 07:50:10;;;;;;;11.57;3.05;;;;;;;15.72;75.80;102260.81;4948171;29;20047;-48
2023/05/24 07:52:37;;;;;;;7.05;3.55;;;;;;;15.79;75.03;102261.06;4950760;28;20058;-48
2023/05/24 07:55:05;;;;;;;12.43;3.35;;;;;;;16.16;74.68;102260.00;4948913;29;20051;-45
2023/05/24 07:57:32;;;;;;;9.52;3.17;;;;;;;16.29;73.18;102270.03;4950298;29;20112;-46
2023/05/24 08:00:05;;;;;;;9.52;3.33;;;;;;;16.64;71.95;102261.22;4931071;29;20489;-47
2023/05/24 08:02:33;;;;;;;7.50;2.65;;;;;;;16.80;70.62;102270.56;4947256;28;20059;-44
2023/05/24 08:05:00;;;;;;;8.05;3.05;;;;;;;16.85;69.49;102271.13;4949882;28;20059;-45
2023/05/24 08:07:27;;;;;;;6.05;2.78;;;;;;;17.09;68.93;102275.06;4947214;29;20087;-45
2023/05/24 08:09:54;;;;;;;6.90;2.50;;;;;;;17.69;67.61;102280.50;4949359;29;20493;-46
2023/05/24 08:12:21;;;;;;;4.88;2.42;;;;;;;17.96;66.00;102287.28;4948383;29;20560;-44
2023/05/24 08:14:48;;;;;;;11.05;2.65;;;;;;;18.09;65.03;102278.47;4949998;29;20505;-45
2023/05/24 08:17:15;;;;;;;8.60;3.60;;;;;;;18.30;64.06;102281.00;4949629;29;20051;-44
2023/05/24 08:19:41;;;;;;;8.75;2.55;;;;;;;18.62;63.12;102284.66;4931945;29;20051;-45
2023/05/24 08:22:08;;;;;;;9.82;3.22;;;;;;;19.16;62.11;102288.41;4949207;29;20082;-44
2023/05/24 08:24:35;;;;;;;9.02;3.13;;;;;;;19.90;60.42;102277.97;4949919;29;20047;-45
2023/05/24 08:27:03;;;;;;;7.15;3.00;;;;;;;20.07;59.01;102280.28;4948697;29;20126;-49
2023/05/24 08:29:30;;;;;;;8.25;2.42;;;;;;;19.93;58.40;102280.03;4946845;29;20151;-45
2023/05/24 08:31:57;;;;;;;14.15;3.70;;;;;;;19.99;57.94;102282.16;4949018;28;20501;-45
2023/05/24 08:34:24;;;;;;;4.45;2.78;;;;;;;20.13;57.05;102283.59;4951019;29;20051;-45
2023/05/24 08:36:52;;;;;;;7.30;2.53;;;;;;;20.13;56.50;102278.81;4948704;29;20047;-45
2023/05/24 08:39:19;;;;;;;6.18;2.38;;;;;;;20.18;55.33;102295.38;4947795;29;20043;-44
2023/05/24 08:41:46;;;;;;;9.52;3.33;;;;;;;19.77;55.15;102290.53;4931651;29;20043;-44
2023/05/24 08:44:46;;;;;;;9.02;3.15;;;;;;;19.30;55.60;102287.91;4946444;29;20039;-47
2023/05/24 08:47:14;;;;;;;7.43;2.38;;;;;;;18.92;55.46;102283.00;4949057;29;20505;-45
2023/05/24 08:49:41;;;;;;;9.55;2.90;;;;;;;18.73;55.59;102292.19;4946195;29;20032;-46
2023/05/24 08:52:10;;;;;;;15.40;3.00;;;;;;;18.83;55.96;102282.38;4946574;29;20397;-49
2023/05/24 08:54:38;;;;;;;8.23;3.22;;;;;;;19.64;55.12;102277.84;4947400;29;20118;-49
2023/05/24 08:57:05;;;;;;;8.20;2.58;;;;;;;19.93;54.05;102269.59;4946640;29;20047;-45
2023/05/24 08:59:32;;;;;;;8.82;2.20;;;;;;;20.24;53.67;102277.03;4948873;29;20110;-45
2023/05/24 09:02:01;;;;;;;8.95;2.53;;;;;;;20.87;53.13;102280.13;4956468;28;20047;-45
2023/05/24 09:04:29;;;;;;;9.10;2.63;;;;;;;21.64;52.02;102276.78;4965429;28;20082;-44
2023/05/24 09:06:57;;;;;;;5.03;2.30;;;;;;;21.71;50.73;102282.53;4954877;28;20389;-45
2023/05/24 09:09:27;;;;;;;5.25;2.70;;;;;;;21.21;51.05;102272.59;4970736;28;20082;-44
2023/05/24 09:11:57;;;;;;;7.55;3.13;;;;;;;20.75;50.95;102280.34;4968691;28;20046;-45
2023/05/24 09:14:24;;;;;;;10.53;2.90;;;;;;;20.28;51.98;102272.28;4970387;28;21397;-44
2023/05/24 09:16:51;;;;;;;11.75;3.50;;;;;;;20.44;51.37;102274.97;4972794;28;20042;-44
2023/05/24 09:19:18;;;;;;;7.93;2.40;;;;;;;20.05;51.42;102269.44;4970881;28;20388;-44
2023/05/24 09:21:48;;;;;;;10.00;3.38;;;;;;;19.40;52.27;102270.50;4970733;28;20046;-49
2023/05/24 09:24:15;;;;;;;8.70;3.05;;;;;;;18.74;52.88;102262.94;4968691;28;20042;-44
2023/05/24 09:26:42;;;;;;;8.25;3.05;;;;;;;18.44;54.08;102267.38;4967797;28;20038;-44
2023/05/24 09:29:09;;;;;;;6.75;2.63;;;;;;;18.21;54.35;102257.97;4971452;28;20090;-50
2023/05/24 09:31:38;;;;;;;7.88;3.05;;;;;;;18.10;55.02;102256.84;4970377;28;20047;-44
2023/05/24 09:34:09;;;;;;;9.70;2.63;;;;;;;18.49;54.51;102258.72;4972820;28;20082;-44
2023/05/24 09:36:41;;;;;;;6.85;2.75;;;;;;;18.46;54.14;102256.59;4969089;28;20034;-49
2023/05/24 09:39:09;;;;;;;10.02;3.45;;;;;;;18.36;54.42;102259.13;4971452;28;20493;-50
2023/05/24 09:41:37;;;;;;;8.68;2.70;;;;;;;18.48;54.32;102251.47;4972696;28;20043;-44
2023/05/24 09:44:05;;;;;;;12.60;3.33;;;;;;;18.61;54.34;102247.38;4954438;28;20053;-44
2023/05/24 09:46:37;;;;;;;12.98;4.80;;;;;;;18.49;54.30;102255.91;4952668;28;20054;-44
2023/05/24 09:49:06;;;;;;;7.43;2.65;;;;;;;18.57;54.47;102260.50;4969019;28;20054;-49
2023/05/24 09:51:37;;;;;;;13.23;3.22;;;;;;;18.80;54.21;102255.88;4959524;28;20047;-44
2023/05/24 09:54:05;;;;;;;6.97;3.35;;;;;;;18.88;53.97;102256.06;4955032;28;20100;-44
2023/05/24 09:56:33;;;;;;;9.38;3.58;;;;;;;18.87;54.05;102260.03;4969089;28;20464;-44
2023/05/24 09:59:07;;;;;;;11.07;4.25;;;;;;;18.75;54.23;102260.94;4968865;28;20055;-44
2023/05/24 10:01:34;;;;;;;8.20;3.33;;;;;;;18.69;54.63;102254.78;4965638;28;20050;-44
2023/05/24 10:04:05;;;;;;;10.88;4.32;;;;;;;18.71;54.67;102268.47;4971677;28;20035;-49
2023/05/24 10:06:53;;;;;;;11.77;3.15;;;;;;;18.71;54.55;102258.06;4970073;28;20055;-49
2023/05/24 10:09:19;;;;;;;9.45;3.70;;;;;;;19.36;53.97;102263.94;4970102;28;20579;-46
2023/05/24 10:11:47;;;;;;;9.65;3.10;;;;;;;19.46;53.19;102260.56;4965838;28;20082;-43
2023/05/24 10:14:14;;;;;;;10.52;3.78;;;;;;;19.24;53.51;102266.91;4949768;28;20046;-44
2023/05/24 10:16:41;;;;;;;11.30;3.53;;;;;;;19.03;54.15;102255.19;4969646;28;20446;-50
2023/05/24 10:19:08;;;;;;;9.27;3.22;;;;;;;18.82;54.80;102258.31;4974104;28;20419;-44
2023/05/24 10:21:40;;;;;;;8.40;2.90;;;;;;;18.60;54.74;102251.38;4974395;28;20138;-45
2023/05/24 10:24:09;;;;;;;10.68;3.65;;;;;;;18.47;55.14;102252.66;4968219;28;20416;-48
2023/05/24 10:26:38;;;;;;;10.30;3.00;;;;;;;18.36;55.48;102247.91;4969695;28;20105;-43
2023/05/24 10:29:09;;;;;;;9.13;4.25;;;;;;;18.22;55.65;102251.16;4968620;28;20042;-49
2023/05/24 10:31:39;;;;;;;11.13;3.50;;;;;;;18.12;55.65;102255.31;4970227;28;20068;-44
2023/05/24 10:34:08;;;;;;;11.73;4.43;;;;;;;18.08;56.04;102253.59;4970458;28;20595;-44
2023/05/24 10:36:36;;;;;;;11.63;4.20;;;;;;;17.96;56.49;102248.88;4967724;28;20039;-45
2023/05/24 10:39:03;;;;;;;12.43;5.32;;;;;;;17.85;56.44;102266.56;4970636;28;20571;-45
2023/05/24 10:41:38;;;;;;;11.32;3.70;;;;;;;17.82;56.61;102258.88;4968900;28;20460;-47
2023/05/24 10:44:10;;;;;;;14.00;3.13;;;;;;;17.80;56.96;102261.22;4968774;28;20057;-50
2023/05/24 10:47:12;;;;;;;12.57;3.92;;;;;;;17.77;56.53;102259.13;4967903;28;20101;-44
2023/05/24 10:49:51;;;;;;;13.45;3.53;;;;;;;17.65;57.00;102251.59;4967981;28;20487;-44
2023/05/24 10:52:18;;;;;;;12.85;3.63;;;;;;;17.70;57.01;102253.31;4968660;28;20043;-45
2023/05/24 10:55:09;;;;;;;11.13;4.13;;;;;;;17.74;56.66;102248.66;4969005;28;20493;-44
2023/05/24 10:57:38;;;;;;;15.30;4.20;;;;;;;17.71;56.80;102253.00;4967583;28;20614;-43
2023/05/24 11:00:27;;;;;;;9.55;3.33;;;;;;;17.82;56.54;102253.28;4970943;28;20405;-46
2023/05/24 11:03:01;;;;;;;12.27;4.90;;;;;;;17.91;56.23;102254.75;4966908;28;20062;-44
2023/05/24 11:05:48;;;;;;;13.00;3.55;;;;;;;18.10;55.94;102251.25;4971542;28;20138;-44
2023/05/24 11:08:35;;;;;;;14.18;4.13;;;;;;;18.35;55.97;102260.31;4970570;28;20170;-44
2023/05/24 11:11:05;;;;;;;13.60;3.63;;;;;;;18.44;55.98;102258.13;4970517;28;20145;-45
2023/05/24 11:13:49;;;;;;;12.48;3.75;;;;;;;18.51;55.63;102247.94;4968724;28;20055;-50
2023/05/24 11:16:36;;;;;;;11.90;4.00;;;;;;;18.54;55.63;102250.00;4967798;28;20055;-44
2023/05/24 11:19:18;;;;;;;18.75;3.42;;;;;;;18.76;55.41;102249.38;4969703;28;20077;-43
2023/05/24 11:21:47;;;;;;;12.23;3.60;;;;;;;18.90;55.31;102248.06;4963613;28;20085;-44
2023/05/24 11:24:18;;;;;;;11.85;3.15;;;;;;;19.15;55.13;102244.66;4966158;28;20047;-50
2023/05/24 11:26:45;;;;;;;14.43;3.83;;;;;;;19.40;54.32;102253.66;4967365;28;20042;-44
2023/05/24 11:29:16;;;;;;;7.50;3.08;;;;;;;19.44;53.79;102240.47;4967206;28;20058;-44